createdAt,value
2023-01-31T00:01:37.342Z,101180.25
2023-01-31T00:04:27.378Z,101179.38
2023-01-31T00:07:15.902Z,101186.22
2023-01-31T00:10:04.632Z,101175.91
2023-01-31T00:12:53.102Z,101178.69
2023-01-31T00:15:41.621Z,101172.69
2023-01-31T00:18:30.236Z,101189.59
2023-01-31T00:21:21.807Z,101186.22
2023-01-31T00:24:10.832Z,101189.34
2023-01-31T00:26:59.360Z,101194.81
2023-01-31T00:29:47.889Z,101183.63
2023-01-31T00:32:36.712Z,101181.22
2023-01-31T00:35:25.478Z,101194.38
2023-01-31T00:38:15.310Z,101189.91
2023-01-31T00:41:04.886Z,101186.84
2023-01-31T00:43:53.422Z,101183.47
2023-01-31T00:46:41.898Z,101172.41
2023-01-31T00:49:30.470Z,101174.53
2023-01-31T00:52:19.227Z,101172.56
2023-01-31T00:55:10.042Z,101178.59
2023-01-31T00:57:58.503Z,101176.50
2023-01-31T01:00:47.467Z,101175.78
2023-01-31T01:03:37.365Z,101175.06
2023-01-31T01:06:25.944Z,101180.25
2023-01-31T01:09:14.537Z,101163.06
2023-01-31T01:12:04.506Z,101166.97
2023-01-31T01:14:53.008Z,101184.03
2023-01-31T01:17:41.566Z,101168.09
2023-01-31T01:20:30.057Z,101170.75
2023-01-31T01:23:18.597Z,101176.06
2023-01-31T01:26:07.505Z,101158.84
2023-01-31T01:28:58.461Z,101175.34
2023-01-31T01:31:47.058Z,101188.34
2023-01-31T01:34:37.089Z,101186.09
2023-01-31T01:37:25.626Z,101184.16
2023-01-31T01:40:14.379Z,101175.03
2023-01-31T01:43:02.879Z,101172.50
2023-01-31T01:45:53.939Z,101153.06
2023-01-31T01:48:43.855Z,101174.06
2023-01-31T01:51:34.183Z,101180.16
2023-01-31T01:54:29.381Z,101182.63
2023-01-31T01:57:21.049Z,101185.03
2023-01-31T02:00:13.675Z,101185.41
2023-01-31T02:03:05.884Z,101189.19
2023-01-31T02:05:56.575Z,101187.66
2023-01-31T02:08:45.325Z,101151.38
2023-01-31T02:11:34.000Z,101192.22
2023-01-31T02:14:22.842Z,101207.88
2023-01-31T02:17:13.677Z,101206.91
2023-01-31T02:20:28.021Z,101199.91
2023-01-31T02:23:46.049Z,101220.97
2023-01-31T02:26:52.374Z,101221.75
2023-01-31T02:30:00.211Z,101169.16
2023-01-31T02:33:01.152Z,101219.16
2023-01-31T02:35:57.928Z,101229.06
2023-01-31T02:38:56.240Z,101228.38
2023-01-31T02:41:48.762Z,101224.03
2023-01-31T02:44:57.487Z,101222.50
2023-01-31T02:47:59.230Z,101222.44
2023-01-31T02:50:55.054Z,101177.09
2023-01-31T02:53:46.557Z,101220.78
2023-01-31T02:56:37.212Z,101215.28
2023-01-31T02:59:28.370Z,101207.75
2023-01-31T03:02:17.052Z,101208.03
2023-01-31T03:05:07.699Z,101202.81
2023-01-31T03:07:58.355Z,101201.19
2023-01-31T03:10:57.233Z,101197.31
2023-01-31T03:13:49.801Z,101203.34
2023-01-31T03:16:59.825Z,101204.03
2023-01-31T03:19:53.296Z,101204.25
2023-01-31T03:22:46.503Z,101197.19
2023-01-31T03:25:36.433Z,101200.06
2023-01-31T03:28:29.433Z,101199.31
2023-01-31T03:31:20.185Z,101203.66
2023-01-31T03:34:11.507Z,101203.50
2023-01-31T03:37:04.565Z,101206.88
2023-01-31T03:39:57.825Z,101211.47
2023-01-31T03:42:49.982Z,101211.81
2023-01-31T03:45:43.098Z,101192.47
2023-01-31T03:48:34.979Z,101227.06
2023-01-31T03:51:27.309Z,101222.31
2023-01-31T03:54:20.280Z,101231.97
2023-01-31T03:57:16.999Z,101225.75
2023-01-31T04:00:07.708Z,101234.44
2023-01-31T04:03:02.162Z,101224.97
2023-01-31T04:05:50.653Z,101237.06
2023-01-31T04:08:39.199Z,101236.94
2023-01-31T04:11:28.457Z,101236.34
2023-01-31T04:14:18.928Z,101125.66
2023-01-31T04:17:07.426Z,101242.19
2023-01-31T04:19:55.898Z,101238.19
2023-01-31T04:22:44.302Z,101244.78
2023-01-31T04:25:33.569Z,101254.53
2023-01-31T04:28:22.198Z,101249.94
2023-01-31T04:31:12.184Z,101238.75
2023-01-31T04:34:00.725Z,101233.00
2023-01-31T04:36:49.208Z,101237.72
2023-01-31T04:39:37.616Z,101234.63
2023-01-31T04:42:26.159Z,101232.94
2023-01-31T04:45:15.517Z,101225.84
2023-01-31T04:48:06.040Z,101226.56
2023-01-31T04:50:54.536Z,101228.22
2023-01-31T04:53:44.510Z,101232.38
2023-01-31T04:56:33.128Z,101226.59
2023-01-31T04:59:21.554Z,101236.22
2023-01-31T05:02:09.981Z,101222.78
2023-01-31T05:04:59.774Z,101209.03
2023-01-31T05:07:48.490Z,101225.38
2023-01-31T05:10:37.142Z,101225.69
2023-01-31T05:13:26.116Z,101229.19
2023-01-31T05:16:14.900Z,101217.66
2023-01-31T05:19:03.489Z,101232.28
2023-01-31T05:21:59.026Z,101211.94
2023-01-31T05:24:47.587Z,101227.13
2023-01-31T05:27:36.041Z,101239.69
2023-01-31T05:30:25.158Z,101231.97
2023-01-31T05:33:13.884Z,101237.16
2023-01-31T05:36:02.775Z,101231.63
2023-01-31T05:38:52.549Z,101235.56
2023-01-31T05:41:41.033Z,101232.22
2023-01-31T05:44:29.475Z,101247.41
2023-01-31T05:47:17.960Z,101246.16
2023-01-31T05:50:07.103Z,101241.72
2023-01-31T05:52:57.312Z,101240.50
2023-01-31T05:55:47.112Z,101241.59
2023-01-31T05:58:35.929Z,101232.50
2023-01-31T06:01:26.159Z,101237.41
2023-01-31T06:04:14.818Z,101234.75
2023-01-31T06:07:03.275Z,101241.59
2023-01-31T06:09:51.706Z,101253.44
2023-01-31T06:12:41.670Z,101255.16
2023-01-31T06:15:30.692Z,101253.81
2023-01-31T06:18:19.260Z,101252.97
2023-01-31T06:21:07.822Z,101259.94
2023-01-31T06:23:56.347Z,101242.22
2023-01-31T06:26:44.821Z,101249.59
2023-01-31T06:29:34.650Z,101257.28
2023-01-31T06:32:23.171Z,101246.63
2023-01-31T06:35:11.657Z,101265.47
2023-01-31T06:38:00.158Z,101264.06
2023-01-31T06:40:48.792Z,101255.97
2023-01-31T06:43:37.269Z,101258.13
2023-01-31T06:46:27.205Z,101261.75
2023-01-31T06:49:15.648Z,101282.72
2023-01-31T06:52:04.155Z,101276.31
2023-01-31T06:54:52.660Z,101270.50
2023-01-31T06:57:47.586Z,101238.81
2023-01-31T07:00:36.040Z,101279.69
2023-01-31T07:03:25.910Z,101284.72
2023-01-31T07:06:14.421Z,101277.72
2023-01-31T07:09:02.876Z,101276.53
2023-01-31T07:11:51.346Z,101276.09
2023-01-31T07:14:39.898Z,101258.88
2023-01-31T07:17:28.432Z,101239.34
2023-01-31T07:20:18.593Z,101272.00
2023-01-31T07:23:07.132Z,101274.44
2023-01-31T07:25:55.585Z,101267.66
2023-01-31T07:28:44.110Z,101275.72
2023-01-31T07:31:32.766Z,101277.06
2023-01-31T07:34:22.960Z,101278.50
2023-01-31T07:37:12.941Z,101273.81
2023-01-31T07:40:01.395Z,101280.91
2023-01-31T07:42:50.264Z,101285.56
2023-01-31T07:45:42.661Z,101232.81
2023-01-31T07:48:31.147Z,101285.00
2023-01-31T07:51:19.780Z,101277.47
2023-01-31T07:54:10.692Z,101278.91
2023-01-31T07:56:59.195Z,101275.94
2023-01-31T07:59:48.226Z,101277.22
2023-01-31T08:02:54.424Z,101273.78
2023-01-31T08:05:42.874Z,101279.63
2023-01-31T08:08:31.334Z,101279.44
2023-01-31T08:11:21.177Z,101270.50
2023-01-31T08:14:09.993Z,101274.16
2023-01-31T08:16:58.696Z,101276.94
2023-01-31T08:19:47.192Z,101288.84
2023-01-31T08:22:35.689Z,101284.28
2023-01-31T08:25:26.691Z,101284.28
2023-01-31T08:28:16.788Z,101289.97
2023-01-31T08:31:09.222Z,101292.63
2023-01-31T08:33:58.051Z,101297.06
2023-01-31T08:36:46.736Z,101299.72
2023-01-31T08:39:35.263Z,101310.97
2023-01-31T08:43:02.418Z,101309.00
2023-01-31T08:45:50.215Z,101298.13
2023-01-31T08:48:40.162Z,101307.94
2023-01-31T08:51:28.997Z,101307.56
2023-01-31T08:54:17.583Z,101306.28
2023-01-31T08:57:06.084Z,101287.44
2023-01-31T08:59:55.696Z,101299.81
2023-01-31T09:02:46.830Z,101298.25
2023-01-31T09:05:35.232Z,101297.03
2023-01-31T09:08:23.730Z,101298.03
2023-01-31T09:11:16.968Z,101292.81
2023-01-31T09:14:05.498Z,101297.97
2023-01-31T09:16:54.016Z,101288.91
2023-01-31T09:19:43.961Z,101278.56
2023-01-31T09:22:32.429Z,101282.47
2023-01-31T09:25:33.501Z,101287.00
2023-01-31T09:28:29.952Z,101293.44
2023-01-31T09:31:20.424Z,101299.00
2023-01-31T09:34:09.033Z,101291.63
2023-01-31T09:36:58.932Z,101276.72
2023-01-31T09:39:47.417Z,101271.84
2023-01-31T09:42:38.751Z,101285.94
2023-01-31T09:45:31.196Z,101289.53
2023-01-31T09:48:21.848Z,101292.63
2023-01-31T09:51:11.707Z,101293.22
2023-01-31T09:54:01.843Z,101275.94
2023-01-31T09:57:00.702Z,101297.44
2023-01-31T09:59:51.223Z,101288.06
2023-01-31T10:03:05.166Z,101246.97
2023-01-31T10:05:56.334Z,101294.59
2023-01-31T10:08:48.636Z,101286.78
2023-01-31T10:11:42.001Z,101274.19
2023-01-31T10:14:34.844Z,101286.38
2023-01-31T10:17:27.106Z,101289.06
2023-01-31T10:20:22.202Z,101281.94
2023-01-31T10:23:15.228Z,101276.59
2023-01-31T10:26:06.316Z,101285.97
2023-01-31T10:29:01.328Z,101288.06
2023-01-31T10:31:53.500Z,101289.44
2023-01-31T10:34:46.030Z,101213.94
2023-01-31T10:37:38.565Z,101290.84
2023-01-31T10:40:31.885Z,101301.22
2023-01-31T10:43:25.852Z,101305.97
2023-01-31T10:46:16.220Z,101293.38
2023-01-31T10:49:04.801Z,101288.63
2023-01-31T10:52:06.749Z,101281.91
2023-01-31T10:55:01.984Z,101269.28
2023-01-31T10:57:51.085Z,101265.91
2023-01-31T11:00:39.556Z,101257.78
2023-01-31T11:03:29.499Z,101256.97
2023-01-31T11:06:18.258Z,101253.06
2023-01-31T11:09:06.758Z,101234.72
2023-01-31T11:11:57.236Z,101219.19
2023-01-31T11:14:45.858Z,101222.69
2023-01-31T11:17:37.526Z,101233.16
2023-01-31T11:20:30.443Z,101190.69
2023-01-31T11:23:24.038Z,101242.13
2023-01-31T11:26:15.458Z,101232.88
2023-01-31T11:29:08.678Z,101178.34
2023-01-31T11:31:58.305Z,101223.38
2023-01-31T11:34:57.221Z,101153.47
2023-01-31T11:37:54.376Z,101214.06
2023-01-31T11:40:42.948Z,101208.72
2023-01-31T11:43:33.433Z,101188.16
2023-01-31T11:46:21.937Z,101200.38
2023-01-31T11:49:14.849Z,101165.06
2023-01-31T11:52:12.474Z,101173.06
2023-01-31T11:55:04.634Z,101177.66
2023-01-31T11:57:57.980Z,101169.84
2023-01-31T12:00:53.748Z,101170.69
2023-01-31T12:04:01.408Z,101153.09
2023-01-31T12:06:59.889Z,101127.78
2023-01-31T12:09:48.721Z,101125.16
2023-01-31T12:12:38.873Z,101135.34
2023-01-31T12:15:27.650Z,101051.72
2023-01-31T12:18:21.705Z,101144.44
2023-01-31T12:21:15.043Z,101146.81
2023-01-31T12:24:10.300Z,101134.19
2023-01-31T12:27:03.466Z,101130.94
2023-01-31T12:30:03.371Z,101136.53
2023-01-31T12:33:02.283Z,101135.09
2023-01-31T12:35:58.695Z,101134.25
2023-01-31T12:38:57.387Z,101117.31
2023-01-31T12:41:55.341Z,101100.38
2023-01-31T12:44:46.533Z,101093.81
2023-01-31T12:47:49.437Z,101077.31
2023-01-31T12:50:42.101Z,101066.38
2023-01-31T12:53:51.895Z,101071.59
2023-01-31T12:56:48.334Z,101064.59
2023-01-31T12:59:48.277Z,101065.50
2023-01-31T13:02:45.570Z,101064.38
2023-01-31T13:05:37.668Z,101060.59
2023-01-31T13:08:28.593Z,101055.72
2023-01-31T13:11:20.653Z,101037.38
2023-01-31T13:14:13.908Z,101055.41
2023-01-31T13:17:04.930Z,101049.75
2023-01-31T13:19:58.545Z,101048.66
2023-01-31T13:22:49.028Z,101044.84
2023-01-31T13:25:40.597Z,101046.81
2023-01-31T13:28:31.228Z,101060.97
2023-01-31T13:31:23.206Z,101057.00
2023-01-31T13:34:17.012Z,101042.47
2023-01-31T13:37:08.824Z,101034.19
2023-01-31T13:39:59.898Z,101034.19
2023-01-31T13:42:48.374Z,101035.34
2023-01-31T13:45:39.215Z,101039.09
2023-01-31T13:48:30.555Z,101039.38
2023-01-31T13:51:22.661Z,101020.03
2023-01-31T13:54:18.126Z,101019.13
2023-01-31T13:57:07.167Z,101020.88
2023-01-31T13:59:57.625Z,101005.66
2023-01-31T14:03:01.518Z,101006.50
2023-01-31T14:05:58.589Z,101006.88
2023-01-31T14:09:00.045Z,100985.53
2023-01-31T14:11:50.312Z,100968.34
2023-01-31T14:14:43.458Z,100970.41
2023-01-31T14:18:01.196Z,100979.91
2023-01-31T14:20:49.770Z,100990.59
2023-01-31T14:23:47.065Z,100977.75
2023-01-31T14:26:51.327Z,100998.16
2023-01-31T14:29:44.796Z,100999.84
2023-01-31T14:32:35.773Z,100998.88
2023-01-31T14:35:31.578Z,101002.41
2023-01-31T14:38:26.938Z,101005.06
2023-01-31T14:41:21.303Z,101018.22
2023-01-31T14:44:20.818Z,101013.19
2023-01-31T14:47:25.931Z,100996.22
2023-01-31T14:50:25.760Z,101012.47
2023-01-31T14:53:31.732Z,101013.47
2023-01-31T14:56:29.085Z,100992.59
2023-01-31T14:59:33.484Z,101008.97
2023-01-31T15:02:48.433Z,100996.50
2023-01-31T15:05:43.021Z,100978.56
2023-01-31T15:08:39.565Z,100990.03
2023-01-31T15:11:43.363Z,100981.41
2023-01-31T15:14:36.810Z,100985.69
2023-01-31T15:17:40.393Z,101000.66
2023-01-31T15:20:36.569Z,101001.81
2023-01-31T15:23:27.163Z,101000.53
2023-01-31T15:26:17.564Z,101007.69
2023-01-31T15:29:06.276Z,101017.34
2023-01-31T15:31:58.316Z,101018.19
2023-01-31T15:34:52.446Z,101021.06
2023-01-31T15:37:42.808Z,101009.19
2023-01-31T15:40:31.782Z,101017.41
2023-01-31T15:43:23.797Z,101003.63
2023-01-31T15:46:22.151Z,101000.53
2023-01-31T15:49:38.564Z,100985.13
2023-01-31T15:52:31.467Z,101015.88
2023-01-31T15:55:21.894Z,101006.38
2023-01-31T15:58:18.494Z,101012.38
2023-01-31T16:01:08.009Z,101008.91
2023-01-31T16:03:58.177Z,101004.19
2023-01-31T16:06:47.783Z,101004.19
2023-01-31T16:09:38.693Z,101013.97
2023-01-31T16:12:29.084Z,100993.03
2023-01-31T16:15:21.204Z,101006.84
2023-01-31T16:18:11.302Z,101011.41
2023-01-31T16:20:59.804Z,101016.75
2023-01-31T16:23:48.212Z,101017.34
2023-01-31T16:26:38.814Z,101021.38
2023-01-31T16:29:39.352Z,101020.69
2023-01-31T16:32:29.577Z,101030.72
2023-01-31T16:35:22.613Z,101029.19
2023-01-31T16:38:20.324Z,101034.91
2023-01-31T16:41:12.739Z,101029.50
2023-01-31T16:44:01.447Z,101028.34
2023-01-31T16:46:52.049Z,101027.84
2023-01-31T16:49:40.531Z,101018.69
2023-01-31T16:52:30.299Z,101025.53
2023-01-31T16:55:21.008Z,101017.19
2023-01-31T16:58:10.261Z,101019.84
2023-01-31T17:01:11.262Z,101019.31
2023-01-31T17:04:19.601Z,101019.69
2023-01-31T17:07:15.966Z,101006.16
2023-01-31T17:10:06.541Z,101018.69
2023-01-31T17:12:58.845Z,101008.06
2023-01-31T17:15:47.872Z,101020.06
2023-01-31T17:18:36.808Z,101028.34
2023-01-31T17:21:28.333Z,101030.19
2023-01-31T17:24:18.174Z,101030.56
2023-01-31T17:27:07.614Z,101035.44
2023-01-31T17:29:56.172Z,101033.91
2023-01-31T17:32:44.606Z,101025.47
2023-01-31T17:35:36.626Z,101025.38
2023-01-31T17:38:27.195Z,101028.91
2023-01-31T17:41:18.134Z,100926.50
2023-01-31T17:44:07.135Z,101009.09
2023-01-31T17:46:58.566Z,100955.03
2023-01-31T17:49:47.054Z,101018.78
2023-01-31T17:52:35.555Z,101013.31
2023-01-31T17:55:25.430Z,101000.97
2023-01-31T17:58:15.000Z,101008.94
2023-01-31T18:01:03.504Z,101007.84
2023-01-31T18:03:52.021Z,101011.00
2023-01-31T18:06:40.691Z,101015.66
2023-01-31T18:09:29.234Z,100996.03
2023-01-31T18:12:21.492Z,101012.00
2023-01-31T18:15:10.869Z,101004.16
2023-01-31T18:17:59.319Z,101006.13
2023-01-31T18:20:49.113Z,101000.19
2023-01-31T18:23:37.545Z,101006.97
2023-01-31T18:26:26.240Z,101009.50
2023-01-31T18:29:19.742Z,101010.34
2023-01-31T18:32:09.790Z,101009.03
2023-01-31T18:34:58.313Z,101018.19
2023-01-31T18:37:48.006Z,101002.81
2023-01-31T18:40:36.628Z,101007.28
2023-01-31T18:43:25.322Z,101005.53
2023-01-31T18:46:15.239Z,101002.19
2023-01-31T18:49:03.848Z,101005.53
2023-01-31T18:51:52.375Z,100998.31
2023-01-31T18:54:41.365Z,100998.38
2023-01-31T18:57:29.938Z,101011.56
2023-01-31T19:00:19.784Z,101013.91
2023-01-31T19:03:09.656Z,101009.59
2023-01-31T19:05:58.472Z,101008.19
2023-01-31T19:08:49.240Z,100949.31
2023-01-31T19:11:37.909Z,101000.19
2023-01-31T19:14:26.414Z,100999.53
2023-01-31T19:17:15.858Z,101003.88
2023-01-31T19:20:06.866Z,101007.53
2023-01-31T19:22:55.556Z,100984.16
2023-01-31T19:25:44.056Z,100996.72
2023-01-31T19:28:32.492Z,100998.94
2023-01-31T19:31:22.259Z,100994.88
2023-01-31T19:34:10.827Z,100993.66
2023-01-31T19:37:00.712Z,100999.84
2023-01-31T19:39:49.305Z,100994.88
2023-01-31T19:42:37.906Z,100996.34
2023-01-31T19:45:28.589Z,100991.00
2023-01-31T19:48:17.952Z,100985.22
2023-01-31T19:51:08.311Z,100956.13
2023-01-31T19:54:01.181Z,100992.38
2023-01-31T19:56:49.692Z,100996.56
2023-01-31T19:59:38.430Z,100984.03
2023-01-31T20:02:27.380Z,100994.38
2023-01-31T20:05:16.040Z,100996.78
2023-01-31T20:08:04.488Z,100992.97
2023-01-31T20:10:56.415Z,100990.69
2023-01-31T20:13:44.939Z,100993.38
2023-01-31T20:16:33.512Z,100992.31
2023-01-31T20:19:22.519Z,100989.66
2023-01-31T20:22:10.989Z,101005.53
2023-01-31T20:25:00.569Z,100995.88
2023-01-31T20:27:50.515Z,101003.47
2023-01-31T20:30:39.085Z,100999.91
2023-01-31T20:33:28.094Z,100999.44
2023-01-31T20:36:16.589Z,100999.44
2023-01-31T20:39:06.366Z,101014.88
2023-01-31T20:41:54.810Z,101011.47
2023-01-31T20:44:44.762Z,101002.66
2023-01-31T20:47:33.273Z,101002.66
2023-01-31T20:50:22.034Z,100985.28
2023-01-31T20:53:18.435Z,100978.59
2023-01-31T20:56:09.494Z,100973.06
2023-01-31T20:58:58.022Z,100966.72
2023-01-31T21:01:47.891Z,100977.38
2023-01-31T21:04:36.388Z,100970.41
2023-01-31T21:07:25.073Z,100967.44
2023-01-31T21:10:14.795Z,100972.56
2023-01-31T21:13:03.358Z,100699.31
2023-01-31T21:15:54.645Z,100978.59
2023-01-31T21:18:44.935Z,100981.56
2023-01-31T21:21:33.499Z,100984.22
2023-01-31T21:24:23.278Z,100976.78
2023-01-31T21:27:12.391Z,100973.72
2023-01-31T21:30:00.954Z,100982.41
2023-01-31T21:32:49.456Z,100978.06
2023-01-31T21:35:39.343Z,100971.66
2023-01-31T21:38:28.259Z,100967.19
2023-01-31T21:41:34.594Z,100971.31
2023-01-31T21:44:24.154Z,100985.13
2023-01-31T21:47:13.073Z,100986.28
2023-01-31T21:50:01.606Z,100992.28
2023-01-31T21:52:51.464Z,100997.97
2023-01-31T21:55:39.929Z,101003.38
2023-01-31T21:58:30.114Z,101001.09
2023-01-31T22:01:20.313Z,100990.84
2023-01-31T22:04:08.959Z,100986.50
2023-01-31T22:06:57.718Z,100982.00
2023-01-31T22:09:47.564Z,100994.72
2023-01-31T22:12:36.067Z,100984.53
2023-01-31T22:15:24.611Z,101001.78
2023-01-31T22:18:13.105Z,100999.97
2023-01-31T22:21:03.304Z,100998.13
2023-01-31T22:23:54.626Z,101003.44
2023-01-31T22:26:45.420Z,100997.91
2023-01-31T22:29:33.936Z,100991.88
2023-01-31T22:32:22.431Z,100975.47
2023-01-31T22:35:11.265Z,100981.03
2023-01-31T22:37:59.774Z,100967.53
2023-01-31T22:40:48.428Z,100958.06
2023-01-31T22:43:39.510Z,100949.72
2023-01-31T22:46:29.665Z,100959.34
2023-01-31T22:49:18.380Z,100971.00
2023-01-31T22:52:06.820Z,100949.75
2023-01-31T22:54:55.293Z,100955.19
2023-01-31T22:57:43.822Z,100963.97
2023-01-31T23:00:34.091Z,100957.69
2023-01-31T23:03:22.685Z,100958.00
2023-01-31T23:06:11.857Z,100922.16
2023-01-31T23:09:00.391Z,100955.09
2023-01-31T23:11:48.964Z,100950.75
2023-01-31T23:14:37.493Z,100944.00
2023-01-31T23:17:39.509Z,100947.84
2023-01-31T23:20:28.377Z,100869.94
2023-01-31T23:23:16.871Z,100949.09
2023-01-31T23:26:06.044Z,100939.06
2023-01-31T23:28:54.557Z,100933.97
2023-01-31T23:31:43.208Z,100933.34
2023-01-31T23:34:33.109Z,100938.22
2023-01-31T23:37:22.333Z,100918.22
2023-01-31T23:40:12.127Z,100916.69
2023-01-31T23:43:00.597Z,100941.56
2023-01-31T23:45:49.280Z,100939.28
2023-01-31T23:48:39.531Z,100930.78
2023-01-31T23:51:31.243Z,100932.00
2023-01-31T23:54:19.831Z,100935.94
2023-01-31T23:57:08.397Z,100933.28
2023-01-31T23:59:56.857Z,100932.28
